Austin, Texas
Traffic Map
Current Weather Conditions
Austin, Texas
Scattered Clouds
Scattered Clouds
79°
Feels Like: 80°
Wind Chill: 79° Ceiling: Unl
Heat Index: 80° Visibility: 10mi
Dew Point: 62° Wind: 6mph
Humidity: 56% Direction: 140° (SE)
Pressure: 30.08in Gusts: 0mph
Raw Report DataKATT 201751Z AUTO 14005KT 10SM SCT033 26/17 A3008 RMK AO2 SLP175 T02610167 10261 20172 58008
Traffic Incident Summary
Active as of:
Severity:
Category:
InformationThere was an issue retrieving the traffic information for this location. Please try a different location or try again shortly.
Advertisements
Track Severe Weather on mobile